Time;durP1;ratioP1;P1;durP2;ratioP2;P2;SDS_P1;SDS_P2;PMS_P1;PMS_P2;Temp;Humidity;BMP_temperature;BMP_pressure;BME280_temperature;BME280_humidity;BME280_pressure;Samples;Min_cycle;Max_cycle;Signal;HPM_P1;HPM_P2
2023/04/10 00:00:38;;;;;;;16.45;7.50;;;;;;;12.73;62.83;97010.91;5027952;28;20085;-49
2023/04/10 00:03:06;;;;;;;12.55;7.07;;;;;;;12.65;60.87;97013.44;5034733;28;20137;-45
2023/04/10 00:05:35;;;;;;;15.07;7.25;;;;;;;12.07;62.02;97011.72;5029474;28;20143;-46
2023/04/10 00:08:03;;;;;;;15.63;7.82;;;;;;;12.01;68.99;97020.22;5031345;28;20144;-47
2023/04/10 00:10:33;;;;;;;15.90;7.88;;;;;;;12.18;67.38;97013.38;5029281;28;20081;-50
2023/04/10 00:13:02;;;;;;;14.87;7.63;;;;;;;12.05;67.20;97018.97;5030390;28;20092;-47
2023/04/10 00:15:30;;;;;;;16.80;8.68;;;;;;;11.87;67.96;97024.09;5026393;28;20092;-46
2023/04/10 00:17:59;;;;;;;19.52;8.80;;;;;;;11.42;72.06;97021.94;5027200;28;20686;-44
2023/04/10 00:20:27;;;;;;;15.35;7.50;;;;;;;12.01;68.74;97023.72;5034716;28;20099;-49
2023/04/10 00:22:55;;;;;;;16.80;7.95;;;;;;;11.56;72.61;97023.34;5029218;28;20081;-47
2023/04/10 00:25:25;;;;;;;17.35;8.50;;;;;;;11.95;68.36;97008.41;5030734;28;20482;-47
2023/04/10 00:27:55;;;;;;;22.97;8.67;;;;;;;11.30;75.06;97015.13;5020764;28;20077;-46
2023/04/10 00:30:24;;;;;;;15.15;7.55;;;;;;;11.87;70.94;97003.81;5027777;28;20049;-47
2023/04/10 00:32:52;;;;;;;16.60;8.18;;;;;;;11.22;75.10;97004.38;5027768;28;20072;-50
2023/04/10 00:35:20;;;;;;;17.23;8.75;;;;;;;11.64;73.27;97010.31;5025704;28;20093;-49
2023/04/10 00:37:49;;;;;;;17.48;9.07;;;;;;;11.29;71.45;97003.72;5028654;28;20462;-47
2023/04/10 00:40:17;;;;;;;15.10;7.75;;;;;;;11.94;67.00;97000.59;5025421;28;20085;-47
2023/04/10 00:42:45;;;;;;;15.90;8.20;;;;;;;12.25;65.92;96991.53;5030066;28;20080;-43
2023/04/10 00:45:15;;;;;;;15.32;8.15;;;;;;;12.29;63.47;96989.44;5027134;28;20569;-49
2023/04/10 00:47:44;;;;;;;16.67;8.50;;;;;;;11.75;62.67;96994.31;5023088;28;20119;-47
2023/04/10 00:50:12;;;;;;;18.25;8.65;;;;;;;11.95;63.00;96989.91;5025068;28;20084;-49
2023/04/10 00:52:40;;;;;;;15.68;7.88;;;;;;;12.23;61.12;96985.56;5028529;28;20485;-50
2023/04/10 00:55:09;;;;;;;16.27;8.30;;;;;;;12.31;61.35;96983.03;5030810;28;20556;-47
2023/04/10 00:57:38;;;;;;;20.30;7.43;;;;;;;12.27;59.29;96984.28;5023910;28;20080;-48
2023/04/10 01:00:08;;;;;;;14.02;6.95;;;;;;;12.11;53.43;96990.19;5028186;28;20084;-47
2023/04/10 01:02:37;;;;;;;12.43;7.03;;;;;;;11.88;51.87;96983.50;5026195;28;20561;-47
2023/04/10 01:05:06;;;;;;;15.70;7.85;;;;;;;11.27;55.50;96991.63;5026023;28;20077;-46
2023/04/10 01:07:44;;;;;;;15.80;7.57;;;;;;;11.23;60.26;96988.41;5027090;28;20081;-45
2023/04/10 01:10:18;;;;;;;13.80;7.55;;;;;;;11.35;58.69;96984.66;5026329;28;20152;-44
2023/04/10 01:12:55;;;;;;;17.23;8.10;;;;;;;10.78;67.56;96991.47;5029474;28;20080;-46
2023/04/10 01:15:25;;;;;;;17.60;7.55;;;;;;;11.14;64.61;96995.34;5024428;28;20084;-47
2023/04/10 01:17:58;;;;;;;16.25;8.27;;;;;;;11.44;60.93;96984.84;5023714;28;20083;-48
2023/04/10 01:20:28;;;;;;;16.30;7.28;;;;;;;11.49;59.81;96986.09;5028847;28;20084;-48
2023/04/10 01:23:08;;;;;;;;;;;;;;;11.73;59.30;96987.50;5026869;28;20097;-48
2023/04/10 01:25:41;;;;;;;22.47;8.40;;;;;;;11.49;61.09;96994.00;5027285;28;19959;-45
2023/04/10 01:28:39;;;;;;;19.63;8.80;;;;;;;11.19;63.83;96994.13;5017935;28;20508;-43
2023/04/10 01:31:09;;;;;;;19.17;8.82;;;;;;;11.55;60.87;96993.47;5024763;28;20096;-44
2023/04/10 01:33:39;;;;;;;;;;;;;;;11.64;59.61;96983.91;5025715;28;20077;-45
2023/04/10 01:36:08;;;;;;;15.35;7.60;;;;;;;10.82;61.96;96989.41;5027013;28;20431;-49
2023/04/10 01:38:40;;;;;;;14.75;7.30;;;;;;;11.34;59.31;96983.00;5025086;28;20077;-47
2023/04/10 01:41:08;;;;;;;16.10;7.80;;;;;;;11.31;60.08;96983.28;5026123;28;20513;-45
2023/04/10 01:43:39;;;;;;;15.55;8.35;;;;;;;11.47;59.14;96989.84;5022588;28;20088;-44
2023/04/10 01:46:07;;;;;;;20.20;8.82;;;;;;;11.38;58.68;96987.03;5028093;28;20081;-46
2023/04/10 01:48:36;;;;;;;13.73;7.18;;;;;;;11.41;56.22;96978.03;5026837;28;20081;-50
2023/04/10 01:51:07;;;;;;;16.40;8.15;;;;;;;11.36;54.69;96980.25;5026397;28;20089;-47
2023/04/10 01:53:37;;;;;;;14.38;7.20;;;;;;;11.19;55.74;96970.34;5028654;28;20089;-47
2023/04/10 01:56:07;;;;;;;17.27;8.10;;;;;;;11.10;57.19;96972.00;5026921;28;20084;-47
2023/04/10 01:58:35;;;;;;;;;;;;;;;11.23;59.79;96972.56;5024823;28;20089;-48
2023/04/10 02:01:05;;;;;;;18.30;9.40;;;;;;;11.02;62.76;96969.19;5027974;28;20412;-50
2023/04/10 02:03:35;;;;;;;19.45;9.38;;;;;;;10.71;65.92;96973.69;5027355;28;20462;-48
2023/04/10 02:06:11;;;;;;;18.85;8.80;;;;;;;10.80;70.70;96968.41;5028400;28;20084;-49
2023/04/10 02:08:42;;;;;;;18.13;9.18;;;;;;;10.63;70.01;96961.13;5027803;28;20076;-47
2023/04/10 02:11:15;;;;;;;17.42;9.35;;;;;;;10.58;68.96;96955.44;5024630;28;20081;-47
2023/04/10 02:13:44;;;;;;;18.75;9.68;;;;;;;10.83;67.18;96962.88;5031169;28;20088;-45
2023/04/10 02:16:16;;;;;;;20.00;9.25;;;;;;;10.84;66.97;96961.06;5029807;28;20096;-44
2023/04/10 02:18:45;;;;;;;19.42;8.65;;;;;;;10.61;70.07;96966.56;5026020;28;20162;-46
2023/04/10 02:21:13;;;;;;;18.90;9.43;;;;;;;10.07;73.44;96969.41;5025765;28;20091;-46
2023/04/10 02:23:42;;;;;;;18.92;8.38;;;;;;;10.15;72.57;96965.19;5026829;28;20429;-48
2023/04/10 02:26:10;;;;;;;16.80;8.90;;;;;;;10.48;68.83;96968.56;5034585;28;20088;-46
2023/04/10 02:28:39;;;;;;;16.85;7.80;;;;;;;10.69;63.91;96966.72;5026599;28;20698;-45
2023/04/10 02:31:07;;;;;;;18.25;9.20;;;;;;;10.81;65.09;96969.28;5020443;28;20119;-46
2023/04/10 02:33:37;;;;;;;17.33;8.30;;;;;;;10.79;65.58;96971.19;5023649;28;20538;-43
2023/04/10 02:36:06;;;;;;;19.07;8.90;;;;;;;10.93;65.04;96969.00;5025285;28;20076;-44
2023/04/10 02:38:35;;;;;;;22.75;9.75;;;;;;;10.98;65.04;96968.63;5017083;28;20502;-45
2023/04/10 02:41:03;;;;;;;18.70;8.20;;;;;;;10.93;62.75;96958.47;5022437;28;20088;-49
2023/04/10 02:43:31;;;;;;;20.70;9.70;;;;;;;10.86;57.71;96962.59;5026068;28;20081;-48
2023/04/10 02:46:00;;;;;;;19.98;9.57;;;;;;;10.78;55.80;96965.09;5025995;28;20073;-49
2023/04/10 02:48:28;;;;;;;19.10;9.60;;;;;;;10.67;54.06;96970.47;5029795;28;20089;-48
2023/04/10 02:50:58;;;;;;;17.83;9.00;;;;;;;10.68;55.52;96967.69;5029170;28;20085;-44
2023/04/10 02:53:27;;;;;;;17.73;8.45;;;;;;;10.61;56.58;96968.34;5025822;28;20093;-49
2023/04/10 02:55:55;;;;;;;20.83;10.18;;;;;;;10.63;56.56;96972.53;5024605;28;20084;-50
2023/04/10 02:58:23;;;;;;;18.88;9.23;;;;;;;10.61;57.23;96973.63;5025196;28;20090;-45
2023/04/10 03:00:52;;;;;;;16.10;8.43;;;;;;;10.74;57.64;96970.78;5022216;28;20084;-46
2023/04/10 03:03:20;;;;;;;19.02;8.60;;;;;;;10.78;56.36;96978.28;5022988;28;20522;-46
2023/04/10 03:05:48;;;;;;;18.13;8.93;;;;;;;10.67;56.08;96976.56;5031592;28;20081;-44
2023/04/10 03:08:18;;;;;;;16.67;7.65;;;;;;;10.66;56.07;96971.41;5026930;28;20591;-48
2023/04/10 03:10:48;;;;;;;16.20;8.52;;;;;;;10.62;60.29;96981.41;5031328;28;20084;-44
2023/04/10 03:13:16;;;;;;;15.20;7.75;;;;;;;10.61;60.19;96978.91;5026308;28;20561;-48
2023/04/10 03:15:45;;;;;;;17.15;8.05;;;;;;;10.61;62.63;96976.28;5059739;28;20068;-44
2023/04/10 03:18:13;;;;;;;15.05;7.80;;;;;;;10.22;63.90;96974.25;5026376;28;20087;-47
2023/04/10 03:20:42;;;;;;;17.27;8.35;;;;;;;10.34;61.60;96971.56;5025141;28;20084;-49
2023/04/10 03:23:12;;;;;;;17.15;7.82;;;;;;;10.56;60.76;96958.19;5027670;28;20085;-48
2023/04/10 03:25:42;;;;;;;16.08;8.20;;;;;;;10.50;61.96;96963.19;5030219;28;20089;-46
2023/04/10 03:28:10;;;;;;;18.80;7.72;;;;;;;10.50;61.37;96966.66;5021630;28;20099;-45
2023/04/10 03:30:38;;;;;;;16.77;7.68;;;;;;;10.65;60.90;96969.75;5024042;28;20085;-46
2023/04/10 03:33:07;;;;;;;17.25;8.23;;;;;;;10.59;60.37;96965.84;5031571;28;20085;-46
2023/04/10 03:35:35;;;;;;;14.27;6.97;;;;;;;10.46;61.54;96970.53;5026736;28;20093;-49
2023/04/10 03:38:03;;;;;;;16.55;7.57;;;;;;;10.35;62.58;96957.41;5031155;28;20071;-51
2023/04/10 03:40:33;;;;;;;14.90;7.72;;;;;;;10.06;62.04;96963.31;5032735;28;20081;-45
2023/04/10 03:43:02;;;;;;;16.42;8.20;;;;;;;9.56;65.91;96962.22;5028641;28;20428;-50
2023/04/10 03:45:31;;;;;;;16.08;7.78;;;;;;;10.02;63.81;96958.44;5027669;28;20081;-48
2023/04/10 03:47:59;;;;;;;15.68;7.90;;;;;;;10.12;62.63;96954.06;5026495;28;20477;-48
2023/04/10 03:50:28;;;;;;;16.73;7.88;;;;;;;10.25;61.46;96956.47;5026980;28;20085;-48
2023/04/10 03:52:56;;;;;;;17.98;8.73;;;;;;;10.18;61.97;96958.78;5022606;28;20108;-46
2023/04/10 03:55:24;;;;;;;16.17;7.97;;;;;;;10.38;60.95;96957.13;5027379;28;20060;-50
2023/04/10 03:57:53;;;;;;;15.90;8.10;;;;;;;10.43;60.16;96963.69;5033767;28;20064;-44
2023/04/10 04:00:24;;;;;;;20.85;8.52;;;;;;;10.43;60.58;96968.97;5024786;28;20083;-46
2023/04/10 04:02:53;;;;;;;13.63;7.20;;;;;;;10.43;58.42;96961.06;5028055;28;20069;-46
2023/04/10 04:05:23;;;;;;;14.65;7.78;;;;;;;10.44;57.18;96968.00;5024790;28;20104;-45
2023/04/10 04:07:51;;;;;;;16.15;7.18;;;;;;;10.39;57.08;96958.78;5027271;28;20135;-46
2023/04/10 04:10:19;;;;;;;17.85;7.88;;;;;;;10.35;57.06;96962.66;5023076;28;20081;-47
2023/04/10 04:12:47;;;;;;;17.08;7.72;;;;;;;10.34;56.48;96961.00;5028390;28;20077;-46
2023/04/10 04:15:16;;;;;;;17.65;7.70;;;;;;;10.29;57.16;96971.09;5034151;28;20083;-48
2023/04/10 04:17:46;;;;;;;18.42;8.10;;;;;;;10.32;58.73;96970.84;5026898;28;20088;-46
2023/04/10 04:20:14;;;;;;;;;;;;;;;10.47;57.43;96959.00;5029760;28;20085;-43
2023/04/10 04:22:43;;;;;;;18.55;7.30;;;;;;;10.34;58.06;96963.66;5025457;28;20391;-46
2023/04/10 04:25:11;;;;;;;21.17;8.55;;;;;;;10.28;57.35;96967.63;5027537;28;20089;-45
2023/04/10 04:27:40;;;;;;;14.73;7.25;;;;;;;10.27;56.83;96968.59;5025289;28;21280;-47
2023/04/10 04:30:10;;;;;;;17.80;7.88;;;;;;;10.32;58.89;96969.03;5027194;28;20486;-48
2023/04/10 04:32:38;;;;;;;15.48;6.85;;;;;;;10.21;58.39;96967.28;5032164;28;20062;-46
2023/04/10 04:35:09;;;;;;;15.63;7.68;;;;;;;10.04;60.33;96973.13;5029053;28;20085;-47
2023/04/10 04:37:37;;;;;;;;;;;;;;;10.00;59.58;96969.09;5027673;28;20084;-48
2023/04/10 04:40:06;;;;;;;16.90;8.63;;;;;;;9.90;62.49;96971.66;5024573;28;20462;-49
2023/04/10 04:42:36;;;;;;;18.58;8.63;;;;;;;10.07;63.18;96979.94;5028062;28;20552;-46
2023/04/10 04:45:05;;;;;;;18.70;8.77;;;;;;;9.70;66.70;96986.50;5026000;28;20088;-48
2023/04/10 04:47:33;;;;;;;14.85;8.38;;;;;;;10.20;63.02;96988.50;5022627;28;20088;-47
2023/04/10 04:50:02;;;;;;;21.75;9.57;;;;;;;10.35;61.57;96986.41;5032516;28;20096;-44
2023/04/10 04:52:34;;;;;;;12.60;6.97;;;;;;;10.49;58.08;96988.69;5024712;28;20077;-49
2023/04/10 04:55:02;;;;;;;13.25;6.82;;;;;;;10.32;53.14;96986.66;5023811;28;20111;-44
2023/04/10 04:57:30;;;;;;;14.20;7.57;;;;;;;10.17;53.54;96994.03;5020551;28;20525;-45
2023/04/10 04:59:58;;;;;;;9.85;5.53;;;;;;;10.09;56.56;96985.94;5020983;28;20508;-47
2023/04/10 05:02:27;;;;;;;11.48;4.70;;;;;;;10.23;58.06;96989.06;5020770;28;20081;-49
2023/04/10 05:04:55;;;;;;;9.93;6.20;;;;;;;10.95;58.21;96991.81;5021345;28;20555;-49
2023/04/10 05:07:24;;;;;;;8.38;5.75;;;;;;;11.63;56.27;96985.69;5025564;28;20547;-46
2023/04/10 05:09:53;;;;;;;8.95;6.00;;;;;;;11.86;54.59;96986.28;5031133;28;20080;-48
2023/04/10 05:12:22;;;;;;;11.80;7.27;;;;;;;12.28;52.41;96980.66;5027371;28;20076;-48
2023/04/10 05:14:50;;;;;;;12.35;7.50;;;;;;;12.61;50.33;96982.97;5024908;28;20096;-46
2023/04/10 05:17:18;;;;;;;12.48;6.45;;;;;;;12.77;52.07;96981.38;5028570;28;20485;-49
2023/04/10 05:19:46;;;;;;;10.75;5.93;;;;;;;12.61;52.72;96985.59;5021267;28;20073;-46
2023/04/10 05:22:15;;;;;;;9.25;4.10;;;;;;;11.88;58.19;96992.25;5017737;28;20466;-47
2023/04/10 05:24:45;;;;;;;10.93;6.28;;;;;;;11.47;62.50;96990.69;5024745;28;20587;-47
2023/04/10 05:27:17;;;;;;;9.07;4.90;;;;;;;11.38;66.40;96994.13;5027179;28;20588;-45
2023/04/10 05:29:46;;;;;;;19.88;9.23;;;;;;;11.63;63.73;96987.47;5029610;28;20088;-46
2023/04/10 05:32:14;;;;;;;17.35;7.50;;;;;;;11.53;63.39;96984.84;5029355;28;20084;-46
2023/04/10 05:34:42;;;;;;;10.52;5.90;;;;;;;11.33;63.92;96984.00;5025846;28;20533;-49
2023/04/10 05:37:11;;;;;;;17.08;9.40;;;;;;;11.38;63.83;96991.50;5025770;28;20513;-44
2023/04/10 05:39:40;;;;;;;17.58;9.23;;;;;;;11.38;63.99;96991.50;5021949;28;20085;-42
2023/04/10 05:42:08;;;;;;;20.75;9.65;;;;;;;11.65;64.75;96996.94;5028569;28;20465;-46
2023/04/10 05:44:38;;;;;;;22.35;10.48;;;;;;;11.94;64.88;96990.88;5023806;28;20760;-46
2023/04/10 05:47:06;;;;;;;16.97;8.37;;;;;;;12.00;64.99;96986.81;5021780;28;20080;-46
2023/04/10 05:49:34;;;;;;;17.90;9.48;;;;;;;12.17;63.93;96987.94;5025751;28;20088;-47
2023/04/10 05:52:03;;;;;;;18.65;9.73;;;;;;;12.29;64.67;96992.09;5022418;28;20076;-46
2023/04/10 05:54:31;;;;;;;19.63;9.75;;;;;;;12.49;63.61;96985.78;5024846;28;20093;-45
2023/04/10 05:57:00;;;;;;;20.13;9.70;;;;;;;12.59;63.82;96986.59;5022404;28;20080;-47
2023/04/10 05:59:28;;;;;;;21.20;9.77;;;;;;;12.82;63.96;96989.69;5022501;28;20084;-48
2023/04/10 06:01:58;;;;;;;19.95;10.13;;;;;;;13.20;62.85;96982.53;5024812;28;20084;-46
2023/04/10 06:04:26;;;;;;;23.10;11.53;;;;;;;13.25;62.71;96987.44;5026214;28;20085;-49
2023/04/10 06:06:56;;;;;;;20.50;9.63;;;;;;;13.46;61.73;96993.31;5027540;28;20519;-54
2023/04/10 06:09:24;;;;;;;22.23;10.45;;;;;;;13.69;60.70;96990.19;5026533;28;20099;-47
2023/04/10 06:11:53;;;;;;;24.75;11.70;;;;;;;13.74;60.48;97001.19;5025003;28;20655;-45
2023/04/10 06:14:21;;;;;;;21.60;11.70;;;;;;;13.89;59.75;97002.31;5025454;28;20539;-47
2023/04/10 06:16:49;;;;;;;22.10;11.68;;;;;;;14.07;59.82;97002.31;5022876;28;20069;-47
2023/04/10 06:19:19;;;;;;;19.80;10.88;;;;;;;14.25;59.37;97005.78;5023578;28;20116;-48
2023/04/10 06:21:48;;;;;;;22.52;12.00;;;;;;;14.43;58.25;96997.78;5027944;28;20065;-46
2023/04/10 06:24:16;;;;;;;21.42;10.13;;;;;;;14.10;58.69;97001.19;5027311;28;20091;-48
2023/04/10 06:26:44;;;;;;;17.67;9.68;;;;;;;14.32;59.03;97002.53;5028729;28;20172;-47
2023/04/10 06:29:13;;;;;;;16.40;8.23;;;;;;;14.32;58.71;97000.72;5029424;28;20085;-46
2023/04/10 06:31:41;;;;;;;21.80;10.25;;;;;;;14.55;57.23;96994.91;5025051;28;20081;-43
2023/04/10 06:34:09;;;;;;;23.92;11.40;;;;;;;14.46;58.39;96994.00;5027797;28;20095;-46
2023/04/10 06:36:39;;;;;;;21.13;10.85;;;;;;;14.01;61.86;97001.13;5024541;28;20096;-47
2023/04/10 06:39:07;;;;;;;23.38;11.48;;;;;;;13.95;61.76;96992.94;5031331;28;20501;-46
2023/04/10 06:41:36;;;;;;;21.27;11.23;;;;;;;14.09;61.20;96992.41;5030164;28;20125;-45
2023/04/10 06:44:04;;;;;;;24.58;13.00;;;;;;;14.31;60.43;96991.06;5030220;28;20525;-43
2023/04/10 06:46:33;;;;;;;23.10;12.88;;;;;;;13.95;65.06;96985.81;5028038;28;20085;-48
2023/04/10 06:49:01;;;;;;;22.23;12.45;;;;;;;13.51;67.28;96996.31;5029604;28;20092;-49
2023/04/10 06:51:30;;;;;;;21.55;11.00;;;;;;;14.74;62.52;96989.38;5025229;28;20077;-47
2023/04/10 06:54:00;;;;;;;21.20;12.77;;;;;;;14.75;59.66;96982.25;5026059;28;20083;-47
2023/04/10 06:56:28;;;;;;;20.77;11.30;;;;;;;14.97;60.72;96989.69;5023432;28;20571;-47
2023/04/10 06:58:56;;;;;;;20.73;11.95;;;;;;;14.71;59.02;96977.25;5026457;28;20077;-49
2023/04/10 07:01:25;;;;;;;18.17;10.40;;;;;;;14.89;62.29;96971.03;5022366;28;20065;-49
2023/04/10 07:03:54;;;;;;;21.08;11.13;;;;;;;14.75;61.22;96976.94;5025797;28;20089;-46
2023/04/10 07:06:23;;;;;;;18.40;11.40;;;;;;;14.93;62.16;96977.69;5024232;28;20088;-46
2023/04/10 07:08:51;;;;;;;22.33;11.88;;;;;;;15.42;59.77;96973.41;5025597;28;20462;-50
2023/04/10 07:11:21;;;;;;;18.90;10.52;;;;;;;15.73;59.44;96974.66;5022763;28;20064;-47
2023/04/10 07:13:52;;;;;;;19.63;10.60;;;;;;;15.95;57.40;96968.69;5026981;28;20075;-47
2023/04/10 07:16:21;;;;;;;15.40;9.05;;;;;;;14.81;61.96;96974.50;5025179;28;20049;-50
2023/04/10 07:18:49;;;;;;;16.63;9.98;;;;;;;15.35;57.59;96972.38;5030118;28;20513;-47
2023/04/10 07:21:18;;;;;;;16.88;9.18;;;;;;;15.34;59.04;96972.53;5032754;28;20085;-47
2023/04/10 07:23:46;;;;;;;13.95;8.35;;;;;;;15.42;58.76;96970.75;5034226;28;20307;-50
2023/04/10 07:26:15;;;;;;;16.08;9.77;;;;;;;15.35;59.13;96975.03;5028393;28;20081;-47
2023/04/10 07:28:44;;;;;;;16.08;8.52;;;;;;;16.12;57.12;96966.84;5024285;28;20087;-48
2023/04/10 07:31:13;;;;;;;17.17;8.87;;;;;;;16.32;54.78;96968.19;5028865;28;20069;-49
2023/04/10 07:33:42;;;;;;;15.50;8.20;;;;;;;16.38;55.63;96958.69;5033099;28;20430;-50
2023/04/10 07:36:10;;;;;;;14.07;8.32;;;;;;;16.11;55.17;96968.69;5036502;28;20077;-46
2023/04/10 07:38:44;;;;;;;14.98;8.05;;;;;;;16.10;55.31;96967.03;5030927;28;20088;-48
2023/04/10 07:41:27;;;;;;;15.63;9.27;;;;;;;16.76;53.53;96967.81;5032561;28;20092;-48
2023/04/10 07:44:27;;;;;;;14.57;8.40;;;;;;;16.79;53.30;96966.59;5038355;28;20029;-47
2023/04/10 07:47:08;;;;;;;13.43;7.32;;;;;;;17.17;50.68;96958.81;5030444;28;20060;-46
2023/04/10 07:49:42;;;;;;;;;;;;;;;17.28;51.01;96961.94;5042676;28;20076;-46
2023/04/10 07:52:15;;;;;;;11.00;6.55;;;;;;;16.89;51.50;96969.91;5034244;28;19964;-45
2023/04/10 07:55:02;;;;;;;12.20;6.63;;;;;;;17.07;51.35;96962.53;5038534;28;20049;-45
2023/04/10 07:57:34;;;;;;;13.57;7.68;;;;;;;17.15;51.24;96959.00;5034616;28;20049;-44
2023/04/10 08:00:16;;;;;;;14.40;8.43;;;;;;;17.54;50.31;96960.78;5039220;28;20037;-47
2023/04/10 08:02:51;;;;;;;14.02;8.07;;;;;;;17.99;49.82;96959.16;5052453;28;20119;-49
2023/04/10 08:05:21;;;;;;;13.18;8.55;;;;;;;17.69;49.56;96963.53;5028687;28;20049;-45
2023/04/10 08:07:49;;;;;;;16.10;7.13;;;;;;;18.36;46.75;96954.84;5027957;28;20521;-46
2023/04/10 08:10:18;;;;;;;13.90;7.18;;;;;;;17.91;48.67;96953.91;5023279;28;20085;-44
2023/04/10 08:12:46;;;;;;;13.98;7.05;;;;;;;18.09;48.70;96956.25;5026366;28;20089;-49
2023/04/10 08:15:16;;;;;;;12.48;7.15;;;;;;;17.78;49.27;96957.97;5029560;28;20073;-45
2023/04/10 08:17:44;;;;;;;9.00;5.05;;;;;;;18.13;48.01;96960.22;5027475;28;20077;-44
2023/04/10 08:20:13;;;;;;;13.25;7.88;;;;;;;17.67;49.49;96955.69;5025337;28;20088;-45
2023/04/10 08:22:42;;;;;;;11.73;7.30;;;;;;;17.88;48.40;96957.75;5028740;28;20092;-45
2023/04/10 08:25:10;;;;;;;13.15;9.35;;;;;;;17.40;49.41;96958.88;5025563;28;20088;-53
2023/04/10 08:27:38;;;;;;;11.45;7.65;;;;;;;18.14;48.00;96954.72;5026581;28;20117;-48
2023/04/10 08:30:08;;;;;;;12.15;7.50;;;;;;;17.83;48.46;96951.31;5036156;28;20087;-47
2023/04/10 08:32:38;;;;;;;13.43;7.50;;;;;;;19.15;46.06;96947.16;5026553;28;20105;-46
2023/04/10 08:35:07;;;;;;;12.88;7.40;;;;;;;18.54;46.16;96949.16;5030417;28;20092;-51
2023/04/10 08:37:35;;;;;;;12.25;7.30;;;;;;;18.30;48.39;96942.22;5026081;28;20107;-45
2023/04/10 08:40:04;;;;;;;13.70;8.02;;;;;;;18.56;46.63;96942.63;5025656;28;20099;-50
2023/04/10 08:42:33;;;;;;;11.75;6.60;;;;;;;18.15;47.82;96952.88;5022823;28;20084;-48
2023/04/10 08:45:03;;;;;;;14.50;8.65;;;;;;;18.29;47.79;96945.91;5035340;28;20463;-47
2023/04/10 08:47:35;;;;;;;11.77;8.32;;;;;;;17.95;48.61;96941.84;5027501;28;20482;-48
2023/04/10 08:50:09;;;;;;;11.95;7.70;;;;;;;18.91;46.58;96937.59;5024686;28;20077;-49
2023/04/10 08:52:38;;;;;;;8.77;5.80;;;;;;;18.87;45.64;96939.00;5027905;28;20085;-47
2023/04/10 08:55:08;;;;;;;13.40;7.67;;;;;;;19.52;45.02;96937.34;5028640;28;20088;-48
2023/04/10 08:57:37;;;;;;;12.65;7.57;;;;;;;18.70;46.48;96941.00;5028396;28;20119;-45
2023/04/10 09:00:09;;;;;;;12.98;8.38;;;;;;;19.58;44.05;96933.88;5028660;28;20088;-46
2023/04/10 09:02:43;;;;;;;13.30;8.27;;;;;;;19.45;44.67;96940.75;5027531;28;20093;-45
2023/04/10 09:05:13;;;;;;;13.23;8.85;;;;;;;18.63;45.57;96940.06;5030080;28;20396;-49
2023/04/10 09:07:41;;;;;;;12.17;7.90;;;;;;;19.52;44.32;96932.81;5030289;28;20103;-46
2023/04/10 09:10:10;;;;;;;11.57;7.70;;;;;;;19.35;44.30;96931.38;5028664;28;20205;-47
2023/04/10 09:12:46;;;;;;;10.77;6.10;;;;;;;19.60;43.48;96935.34;5024770;28;20087;-47
2023/04/10 09:15:14;;;;;;;12.80;8.80;;;;;;;18.88;44.11;96932.63;5027184;28;20182;-48
2023/04/10 09:17:56;;;;;;;8.20;4.82;;;;;;;19.18;43.97;96926.25;5026515;28;20086;-46
2023/04/10 09:20:29;;;;;;;11.20;7.53;;;;;;;19.14;43.27;96934.84;5024522;28;20088;-47
2023/04/10 09:22:58;;;;;;;11.02;6.68;;;;;;;18.56;44.24;96929.28;5028767;28;20085;-46
2023/04/10 09:25:31;;;;;;;11.48;7.10;;;;;;;19.78;41.54;96910.84;5026628;28;20088;-46
2023/04/10 09:28:01;;;;;;;17.98;10.60;;;;;;;19.30;43.26;96920.41;5021313;28;20081;-46
2023/04/10 09:30:36;;;;;;;61.28;27.27;;;;;;;20.06;41.70;96915.44;5022704;28;20085;-47
2023/04/10 09:33:21;;;;;;;16.33;10.18;;;;;;;19.62;42.28;96913.78;5029336;28;20081;-49
2023/04/10 09:35:51;;;;;;;13.38;8.45;;;;;;;20.61;41.56;96906.63;5025545;28;20081;-48
2023/04/10 09:38:20;;;;;;;85.07;45.50;;;;;;;19.85;41.91;96906.38;5027666;28;20085;-49
2023/04/10 09:40:49;;;;;;;11.32;6.68;;;;;;;19.51;41.13;96912.44;5029220;28;20092;-50
2023/04/10 09:43:21;;;;;;;12.10;7.88;;;;;;;19.38;41.83;96909.59;5026233;28;20092;-45
2023/04/10 09:45:51;;;;;;;8.95;5.28;;;;;;;20.08;40.88;96891.97;5026245;28;20088;-44
2023/04/10 09:48:20;;;;;;;11.65;7.43;;;;;;;21.06;39.27;96888.28;5026910;28;20089;-46
2023/04/10 09:50:49;;;;;;;14.63;9.35;;;;;;;19.80;41.55;96891.94;5027430;28;20089;-46
2023/04/10 09:53:20;;;;;;;15.05;9.57;;;;;;;19.40;41.14;96892.31;5023051;28;20085;-48
2023/04/10 09:55:49;;;;;;;20.10;14.68;;;;;;;19.84;40.16;96879.84;5025624;28;20541;-46
2023/04/10 09:58:18;;;;;;;15.65;10.93;;;;;;;20.31;40.91;96871.13;5029825;28;20091;-49
2023/04/10 10:00:47;;;;;;;24.75;15.70;;;;;;;20.25;40.20;96868.41;5027809;28;20147;-45
2023/04/10 10:03:17;;;;;;;15.63;9.00;;;;;;;20.04;40.18;96882.69;5019085;28;20116;-45
2023/04/10 10:05:48;;;;;;;10.52;6.38;;;;;;;21.46;37.62;96864.28;5028846;28;20073;-49
2023/04/10 10:08:18;;;;;;;10.35;6.35;;;;;;;21.83;36.73;96869.28;5025997;28;20092;-48
2023/04/10 10:10:48;;;;;;;11.02;7.18;;;;;;;21.17;38.12;96864.59;5032490;28;20085;-45
2023/04/10 10:13:18;;;;;;;12.20;7.35;;;;;;;20.71;39.76;96857.16;5028493;28;20548;-49
2023/04/10 10:15:51;;;;;;;12.77;9.93;;;;;;;20.20;40.10;96863.66;5030337;28;20089;-46
2023/04/10 10:18:25;;;;;;;11.80;7.72;;;;;;;22.07;37.47;96849.88;5031701;28;20088;-48
2023/04/10 10:20:53;;;;;;;9.82;6.63;;;;;;;20.41;38.33;96852.03;5030684;28;20125;-45
2023/04/10 10:23:23;;;;;;;8.45;5.28;;;;;;;21.99;36.84;96848.22;5031536;28;20537;-46
2023/04/10 10:25:52;;;;;;;12.55;8.93;;;;;;;20.62;37.98;96848.47;5028653;28;20095;-47
2023/04/10 10:28:21;;;;;;;10.75;6.68;;;;;;;21.21;37.33;96841.69;5029834;28;20088;-46
2023/04/10 10:30:50;;;;;;;11.07;7.28;;;;;;;20.76;38.07;96850.19;5024647;28;20490;-47
2023/04/10 10:33:18;;;;;;;6.20;3.97;;;;;;;21.21;37.48;96839.84;5033749;28;20359;-45
2023/04/10 10:35:48;;;;;;;9.10;5.30;;;;;;;21.25;38.09;96829.53;5025620;28;20077;-49
2023/04/10 10:38:18;;;;;;;11.27;7.45;;;;;;;21.24;37.56;96825.22;5028623;28;20088;-46
2023/04/10 10:40:55;;;;;;;12.57;7.90;;;;;;;20.90;38.11;96831.50;5027836;28;20084;-45
2023/04/10 10:43:27;;;;;;;12.60;8.45;;;;;;;21.21;37.75;96814.88;5037156;28;20092;-45
2023/04/10 10:45:59;;;;;;;11.60;6.95;;;;;;;22.07;36.16;96808.75;5034607;28;20080;-46
2023/04/10 10:48:28;;;;;;;10.90;6.78;;;;;;;21.02;37.12;96809.25;5028986;28;20088;-49
2023/04/10 10:50:58;;;;;;;10.15;7.10;;;;;;;20.42;38.70;96813.50;5028037;28;20092;-44
2023/04/10 10:53:33;;;;;;;10.13;5.93;;;;;;;20.92;38.22;96816.88;5024621;28;20081;-45
2023/04/10 10:56:34;;;;;;;12.27;7.70;;;;;;;21.34;36.73;96796.16;5034388;28;20496;-45
2023/04/10 10:59:03;;;;;;;10.80;7.10;;;;;;;22.42;35.75;96788.66;5026519;28;20084;-45
2023/04/10 11:01:31;;;;;;;12.52;8.88;;;;;;;20.84;37.52;96798.25;5032706;28;20084;-44
2023/04/10 11:04:00;;;;;;;12.13;7.50;;;;;;;21.76;37.25;96783.38;5025760;28;20081;-47
2023/04/10 11:06:50;;;;;;;11.95;7.05;;;;;;;21.47;36.66;96785.44;5032713;28;20077;-46
2023/04/10 11:09:47;;;;;;;10.60;6.28;;;;;;;21.62;36.03;96776.38;5032293;28;20100;-45
2023/04/10 11:12:19;;;;;;;10.73;7.28;;;;;;;21.43;36.38;96775.31;5026261;28;20580;-46
2023/04/10 11:14:57;;;;;;;9.60;5.55;;;;;;;21.06;37.04;96781.00;5023876;28;20089;-48
2023/04/10 11:17:48;;;;;;;11.93;8.07;;;;;;;21.31;37.16;96770.53;5025529;28;20100;-46
2023/04/10 11:20:17;;;;;;;11.38;6.82;;;;;;;22.07;36.33;96769.28;5026855;28;20096;-47
2023/04/10 11:23:07;;;;;;;10.65;6.75;;;;;;;22.13;35.91;96768.47;5028838;28;20211;-45
2023/04/10 11:25:54;;;;;;;12.57;6.82;;;;;;;22.96;34.09;96757.88;5030849;28;20077;-45
2023/04/10 11:28:37;;;;;;;8.70;5.57;;;;;;;22.29;33.47;96759.13;5028453;28;20092;-46
2023/04/10 11:31:17;;;;;;;7.82;5.30;;;;;;;22.68;32.20;96757.38;5029350;28;20442;-46
2023/04/10 11:33:46;;;;;;;8.52;5.70;;;;;;;23.32;32.02;96747.50;5031298;28;20085;-46
2023/04/10 11:36:16;;;;;;;10.23;6.47;;;;;;;22.25;34.67;96749.84;5031033;28;20088;-45
2023/04/10 11:38:55;;;;;;;7.22;4.72;;;;;;;21.74;31.12;96751.34;5031842;28;20069;-47
2023/04/10 11:41:27;;;;;;;5.60;3.13;;;;;;;22.26;27.85;96748.81;5024950;28;20088;-47